sensor_id;sensor_type;location;lat;lon;timestamp;temperature;humidity
64817;DHT22;69411;45.656;11.740;2023-08-06T00:06:43;19.30;80.60
64817;DHT22;69411;45.656;11.740;2023-08-06T00:09:11;19.30;80.50
64817;DHT22;69411;45.656;11.740;2023-08-06T00:11:39;19.30;80.50
64817;DHT22;69411;45.656;11.740;2023-08-06T00:14:08;19.30;80.40
64817;DHT22;69411;45.656;11.740;2023-08-06T00:16:34;19.30;80.50
64817;DHT22;69411;45.656;11.740;2023-08-06T00:19:00;19.30;80.50
64817;DHT22;69411;45.656;11.740;2023-08-06T00:21:26;19.30;80.40
64817;DHT22;69411;45.656;11.740;2023-08-06T00:23:52;19.20;80.50
64817;DHT22;69411;45.656;11.740;2023-08-06T00:26:20;19.20;80.40
64817;DHT22;69411;45.656;11.740;2023-08-06T00:28:48;19.20;80.50
64817;DHT22;69411;45.656;11.740;2023-08-06T00:31:16;19.20;80.50
64817;DHT22;69411;45.656;11.740;2023-08-06T00:33:44;19.20;80.50
64817;DHT22;69411;45.656;11.740;2023-08-06T00:36:12;19.10;80.60
64817;DHT22;69411;45.656;11.740;2023-08-06T00:38:38;19.10;80.60
64817;DHT22;69411;45.656;11.740;2023-08-06T00:41:04;19.20;80.50
64817;DHT22;69411;45.656;11.740;2023-08-06T00:43:30;19.10;80.50
64817;DHT22;69411;45.656;11.740;2023-08-06T00:45:56;19.10;80.50
64817;DHT22;69411;45.656;11.740;2023-08-06T00:48:22;19.10;80.60
64817;DHT22;69411;45.656;11.740;2023-08-06T00:50:49;19.10;80.60
64817;DHT22;69411;45.656;11.740;2023-08-06T00:53:15;19.10;80.60
64817;DHT22;69411;45.656;11.740;2023-08-06T00:55:43;19.10;80.60
64817;DHT22;69411;45.656;11.740;2023-08-06T00:58:13;19.10;80.60
64817;DHT22;69411;45.656;11.740;2023-08-06T01:00:41;19.10;80.60
64817;DHT22;69411;45.656;11.740;2023-08-06T01:03:08;19.10;80.60
64817;DHT22;69411;45.656;11.740;2023-08-06T01:05:36;19.10;80.60
64817;DHT22;69411;45.656;11.740;2023-08-06T01:13:47;19.20;80.60
64817;DHT22;69411;45.656;11.740;2023-08-06T01:16:18;19.20;80.60
64817;DHT22;69411;45.656;11.740;2023-08-06T01:18:58;19.20;80.60
64817;DHT22;69411;45.656;11.740;2023-08-06T01:21:26;19.20;80.60
64817;DHT22;69411;45.656;11.740;2023-08-06T01:23:54;19.20;80.60
64817;DHT22;69411;45.656;11.740;2023-08-06T01:26:43;19.20;80.60
64817;DHT22;69411;45.656;11.740;2023-08-06T01:29:41;19.20;80.60
64817;DHT22;69411;45.656;11.740;2023-08-06T01:32:12;19.20;80.60
64817;DHT22;69411;45.656;11.740;2023-08-06T01:34:44;19.20;80.50
64817;DHT22;69411;45.656;11.740;2023-08-06T01:37:12;19.30;80.50
64817;DHT22;69411;45.656;11.740;2023-08-06T01:39:42;19.30;80.50
64817;DHT22;69411;45.656;11.740;2023-08-06T01:42:11;19.30;80.50
64817;DHT22;69411;45.656;11.740;2023-08-06T01:44:53;19.20;80.50
64817;DHT22;69411;45.656;11.740;2023-08-06T01:47:20;19.20;80.50
64817;DHT22;69411;45.656;11.740;2023-08-06T01:49:47;19.30;80.60
64817;DHT22;69411;45.656;11.740;2023-08-06T01:52:15;19.20;80.50
64817;DHT22;69411;45.656;11.740;2023-08-06T01:54:43;19.30;80.60
64817;DHT22;69411;45.656;11.740;2023-08-06T01:57:11;19.20;80.50
64817;DHT22;69411;45.656;11.740;2023-08-06T01:59:39;19.20;80.50
64817;DHT22;69411;45.656;11.740;2023-08-06T02:02:06;19.20;80.60
64817;DHT22;69411;45.656;11.740;2023-08-06T02:04:34;19.10;80.60
64817;DHT22;69411;45.656;11.740;2023-08-06T02:07:03;19.20;80.70
64817;DHT22;69411;45.656;11.740;2023-08-06T02:09:29;19.20;80.70
64817;DHT22;69411;45.656;11.740;2023-08-06T02:11:57;19.20;80.80
64817;DHT22;69411;45.656;11.740;2023-08-06T02:14:23;19.20;80.80
64817;DHT22;69411;45.656;11.740;2023-08-06T02:16:49;19.10;80.80
64817;DHT22;69411;45.656;11.740;2023-08-06T02:19:15;19.10;80.70
64817;DHT22;69411;45.656;11.740;2023-08-06T02:21:41;19.10;80.70
64817;DHT22;69411;45.656;11.740;2023-08-06T02:24:23;19.10;80.70
64817;DHT22;69411;45.656;11.740;2023-08-06T02:26:49;19.00;80.80
64817;DHT22;69411;45.656;11.740;2023-08-06T02:29:19;19.10;80.90
64817;DHT22;69411;45.656;11.740;2023-08-06T02:31:46;19.10;80.90
64817;DHT22;69411;45.656;11.740;2023-08-06T02:34:14;19.10;81.00
64817;DHT22;69411;45.656;11.740;2023-08-06T02:36:53;19.10;81.10
64817;DHT22;69411;45.656;11.740;2023-08-06T02:39:32;19.10;81.10
64817;DHT22;69411;45.656;11.740;2023-08-06T02:42:02;19.10;81.10
64817;DHT22;69411;45.656;11.740;2023-08-06T02:44:30;19.10;81.20
64817;DHT22;69411;45.656;11.740;2023-08-06T02:46:56;19.10;81.20
64817;DHT22;69411;45.656;11.740;2023-08-06T02:49:22;19.10;81.20
64817;DHT22;69411;45.656;11.740;2023-08-06T02:51:48;19.20;81.20
64817;DHT22;69411;45.656;11.740;2023-08-06T02:54:14;19.20;81.20
64817;DHT22;69411;45.656;11.740;2023-08-06T02:56:43;19.20;81.20
64817;DHT22;69411;45.656;11.740;2023-08-06T02:59:11;19.20;81.20
64817;DHT22;69411;45.656;11.740;2023-08-06T03:01:37;19.10;81.20
64817;DHT22;69411;45.656;11.740;2023-08-06T03:04:04;19.20;81.10
64817;DHT22;69411;45.656;11.740;2023-08-06T03:06:30;19.20;81.10
64817;DHT22;69411;45.656;11.740;2023-08-06T03:08:56;19.10;80.90
64817;DHT22;69411;45.656;11.740;2023-08-06T03:11:22;19.20;80.90
64817;DHT22;69411;45.656;11.740;2023-08-06T03:13:48;19.20;80.70
64817;DHT22;69411;45.656;11.740;2023-08-06T03:16:14;19.20;80.50
64817;DHT22;69411;45.656;11.740;2023-08-06T03:18:40;19.20;80.40
64817;DHT22;69411;45.656;11.740;2023-08-06T03:21:07;19.10;80.30
64817;DHT22;69411;45.656;11.740;2023-08-06T03:23:32;19.10;80.20
64817;DHT22;69411;45.656;11.740;2023-08-06T03:26:04;19.10;80.10
64817;DHT22;69411;45.656;11.740;2023-08-06T03:28:30;19.10;80.00
64817;DHT22;69411;45.656;11.740;2023-08-06T03:31:00;19.10;80.00
64817;DHT22;69411;45.656;11.740;2023-08-06T03:33:26;19.10;80.00
64817;DHT22;69411;45.656;11.740;2023-08-06T03:35:52;19.10;79.90
64817;DHT22;69411;45.656;11.740;2023-08-06T03:38:18;19.00;79.90
64817;DHT22;69411;45.656;11.740;2023-08-06T03:40:46;19.00;79.90
64817;DHT22;69411;45.656;11.740;2023-08-06T03:43:12;19.00;79.90
64817;DHT22;69411;45.656;11.740;2023-08-06T03:45:38;18.90;80.10
64817;DHT22;69411;45.656;11.740;2023-08-06T03:48:05;18.90;80.10
64817;DHT22;69411;45.656;11.740;2023-08-06T03:50:31;18.90;80.20
64817;DHT22;69411;45.656;11.740;2023-08-06T03:52:57;18.90;80.20
64817;DHT22;69411;45.656;11.740;2023-08-06T03:55:23;18.90;80.20
64817;DHT22;69411;45.656;11.740;2023-08-06T03:57:49;18.80;80.30
64817;DHT22;69411;45.656;11.740;2023-08-06T04:00:15;18.90;80.40
64817;DHT22;69411;45.656;11.740;2023-08-06T04:02:41;18.90;80.40
64817;DHT22;69411;45.656;11.740;2023-08-06T04:05:08;18.80;80.40
64817;DHT22;69411;45.656;11.740;2023-08-06T04:07:34;18.80;80.40
64817;DHT22;69411;45.656;11.740;2023-08-06T04:10:01;18.80;80.40
64817;DHT22;69411;45.656;11.740;2023-08-06T04:12:29;18.90;80.50
64817;DHT22;69411;45.656;11.740;2023-08-06T04:14:57;18.90;80.60
64817;DHT22;69411;45.656;11.740;2023-08-06T04:17:23;18.90;80.60
64817;DHT22;69411;45.656;11.740;2023-08-06T04:19:53;18.80;80.70
64817;DHT22;69411;45.656;11.740;2023-08-06T04:22:20;18.80;80.70
64817;DHT22;69411;45.656;11.740;2023-08-06T04:24:47;18.80;80.80
64817;DHT22;69411;45.656;11.740;2023-08-06T04:27:14;18.80;80.80
64817;DHT22;69411;45.656;11.740;2023-08-06T04:29:40;18.80;81.00
64817;DHT22;69411;45.656;11.740;2023-08-06T04:32:07;18.80;80.70
64817;DHT22;69411;45.656;11.740;2023-08-06T04:34:34;18.80;80.60
64817;DHT22;69411;45.656;11.740;2023-08-06T04:37:00;18.80;80.70
64817;DHT22;69411;45.656;11.740;2023-08-06T04:39:27;18.70;80.80
64817;DHT22;69411;45.656;11.740;2023-08-06T04:41:53;18.80;80.80
64817;DHT22;69411;45.656;11.740;2023-08-06T04:44:19;18.70;80.80
64817;DHT22;69411;45.656;11.740;2023-08-06T04:46:45;18.80;80.90
64817;DHT22;69411;45.656;11.740;2023-08-06T04:49:11;18.80;80.90
64817;DHT22;69411;45.656;11.740;2023-08-06T04:51:37;18.80;80.90
64817;DHT22;69411;45.656;11.740;2023-08-06T04:54:03;18.90;80.80
64817;DHT22;69411;45.656;11.740;2023-08-06T04:56:29;18.90;80.70
64817;DHT22;69411;45.656;11.740;2023-08-06T04:58:55;18.90;80.60
64817;DHT22;69411;45.656;11.740;2023-08-06T05:01:21;19.00;80.60
64817;DHT22;69411;45.656;11.740;2023-08-06T05:03:48;19.10;80.50
64817;DHT22;69411;45.656;11.740;2023-08-06T05:06:13;19.10;80.40
64817;DHT22;69411;45.656;11.740;2023-08-06T05:08:39;19.50;80.60
64817;DHT22;69411;45.656;11.740;2023-08-06T05:11:06;20.80;80.10
64817;DHT22;69411;45.656;11.740;2023-08-06T05:13:31;22.70;78.00
64817;DHT22;69411;45.656;11.740;2023-08-06T05:15:58;24.40;73.10
64817;DHT22;69411;45.656;11.740;2023-08-06T05:18:24;26.00;69.30
64817;DHT22;69411;45.656;11.740;2023-08-06T05:20:50;27.50;65.10
64817;DHT22;69411;45.656;11.740;2023-08-06T05:23:16;28.80;61.90
64817;DHT22;69411;45.656;11.740;2023-08-06T05:25:42;29.90;59.40
64817;DHT22;69411;45.656;11.740;2023-08-06T05:28:08;31.00;56.70
64817;DHT22;69411;45.656;11.740;2023-08-06T05:30:38;32.00;54.50
64817;DHT22;69411;45.656;11.740;2023-08-06T05:33:04;32.80;51.70
64817;DHT22;69411;45.656;11.740;2023-08-06T05:35:30;33.60;50.50
64817;DHT22;69411;45.656;11.740;2023-08-06T05:37:57;34.50;48.70
64817;DHT22;69411;45.656;11.740;2023-08-06T05:40:23;35.50;47.10
64817;DHT22;69411;45.656;11.740;2023-08-06T05:42:53;36.50;45.10
64817;DHT22;69411;45.656;11.740;2023-08-06T05:45:19;37.40;43.10
64817;DHT22;69411;45.656;11.740;2023-08-06T05:47:45;37.90;42.10
64817;DHT22;69411;45.656;11.740;2023-08-06T05:50:11;38.60;40.40
64817;DHT22;69411;45.656;11.740;2023-08-06T05:52:37;39.40;38.90
64817;DHT22;69411;45.656;11.740;2023-08-06T05:55:03;40.00;37.20
64817;DHT22;69411;45.656;11.740;2023-08-06T05:57:29;40.50;35.70
64817;DHT22;69411;45.656;11.740;2023-08-06T05:59:55;41.10;35.50
64817;DHT22;69411;45.656;11.740;2023-08-06T06:02:21;41.60;35.00
64817;DHT22;69411;45.656;11.740;2023-08-06T06:04:47;41.90;34.80
64817;DHT22;69411;45.656;11.740;2023-08-06T06:07:13;41.50;35.10
64817;DHT22;69411;45.656;11.740;2023-08-06T06:09:39;41.50;35.00
64817;DHT22;69411;45.656;11.740;2023-08-06T06:12:06;41.90;34.70
64817;DHT22;69411;45.656;11.740;2023-08-06T06:14:32;42.50;34.40
64817;DHT22;69411;45.656;11.740;2023-08-06T06:16:59;42.90;33.40
64817;DHT22;69411;45.656;11.740;2023-08-06T06:19:26;43.30;32.70
64817;DHT22;69411;45.656;11.740;2023-08-06T06:21:52;43.70;31.90
64817;DHT22;69411;45.656;11.740;2023-08-06T06:24:19;44.20;31.00
64817;DHT22;69411;45.656;11.740;2023-08-06T06:26:45;44.50;30.80
64817;DHT22;69411;45.656;11.740;2023-08-06T06:29:11;44.90;29.90
64817;DHT22;69411;45.656;11.740;2023-08-06T06:31:37;44.90;30.00
64817;DHT22;69411;45.656;11.740;2023-08-06T06:34:03;45.20;30.30
64817;DHT22;69411;45.656;11.740;2023-08-06T06:36:29;45.60;30.20
64817;DHT22;69411;45.656;11.740;2023-08-06T06:38:55;46.00;29.40
64817;DHT22;69411;45.656;11.740;2023-08-06T06:41:21;46.30;29.00
64817;DHT22;69411;45.656;11.740;2023-08-06T06:43:46;46.30;28.80
64817;DHT22;69411;45.656;11.740;2023-08-06T06:46:12;46.40;28.20
64817;DHT22;69411;45.656;11.740;2023-08-06T06:48:38;46.20;27.90
64817;DHT22;69411;45.656;11.740;2023-08-06T06:51:04;46.00;28.20
64817;DHT22;69411;45.656;11.740;2023-08-06T06:53:30;45.90;27.90
64817;DHT22;69411;45.656;11.740;2023-08-06T06:56:06;45.70;27.90
64817;DHT22;69411;45.656;11.740;2023-08-06T06:58:34;45.60;28.00
64817;DHT22;69411;45.656;11.740;2023-08-06T07:01:02;45.60;28.00
64817;DHT22;69411;45.656;11.740;2023-08-06T07:03:30;45.10;27.90
64817;DHT22;69411;45.656;11.740;2023-08-06T07:05:59;44.50;28.00
64817;DHT22;69411;45.656;11.740;2023-08-06T07:08:25;44.20;28.30
64817;DHT22;69411;45.656;11.740;2023-08-06T07:11:00;43.80;28.70
64817;DHT22;69411;45.656;11.740;2023-08-06T07:13:27;42.50;29.10
64817;DHT22;69411;45.656;11.740;2023-08-06T07:15:54;40.80;31.30
64817;DHT22;69411;45.656;11.740;2023-08-06T07:18:21;38.90;33.20
64817;DHT22;69411;45.656;11.740;2023-08-06T07:20:50;37.30;35.40
64817;DHT22;69411;45.656;11.740;2023-08-06T07:23:18;35.80;36.80
64817;DHT22;69411;45.656;11.740;2023-08-06T07:25:45;34.50;38.90
64817;DHT22;69411;45.656;11.740;2023-08-06T07:28:11;33.40;40.90
64817;DHT22;69411;45.656;11.740;2023-08-06T07:30:41;32.50;42.60
64817;DHT22;69411;45.656;11.740;2023-08-06T07:33:08;31.70;44.10
64817;DHT22;69411;45.656;11.740;2023-08-06T07:35:34;31.10;45.60
64817;DHT22;69411;45.656;11.740;2023-08-06T07:38:01;30.50;46.80
64817;DHT22;69411;45.656;11.740;2023-08-06T07:40:28;30.20;47.70
64817;DHT22;69411;45.656;11.740;2023-08-06T07:42:54;30.10;48.20
64817;DHT22;69411;45.656;11.740;2023-08-06T07:45:22;29.90;48.20
64817;DHT22;69411;45.656;11.740;2023-08-06T07:47:48;29.40;49.20
64817;DHT22;69411;45.656;11.740;2023-08-06T07:50:13;29.00;50.20
64817;DHT22;69411;45.656;11.740;2023-08-06T07:52:40;28.90;49.80
64817;DHT22;69411;45.656;11.740;2023-08-06T07:55:08;28.60;50.30
64817;DHT22;69411;45.656;11.740;2023-08-06T07:57:36;28.20;51.50
64817;DHT22;69411;45.656;11.740;2023-08-06T08:00:04;28.00;52.20
64817;DHT22;69411;45.656;11.740;2023-08-06T08:02:30;28.00;52.10
64817;DHT22;69411;45.656;11.740;2023-08-06T08:04:56;27.90;52.70
64817;DHT22;69411;45.656;11.740;2023-08-06T08:07:22;27.90;52.70
64817;DHT22;69411;45.656;11.740;2023-08-06T08:09:48;27.90;52.90
64817;DHT22;69411;45.656;11.740;2023-08-06T08:12:14;27.70;53.40
64817;DHT22;69411;45.656;11.740;2023-08-06T08:14:40;27.70;53.60
64817;DHT22;69411;45.656;11.740;2023-08-06T08:17:07;27.60;53.80
64817;DHT22;69411;45.656;11.740;2023-08-06T08:19:33;27.40;53.40
64817;DHT22;69411;45.656;11.740;2023-08-06T08:22:00;27.00;53.70
64817;DHT22;69411;45.656;11.740;2023-08-06T08:24:28;27.00;54.40
64817;DHT22;69411;45.656;11.740;2023-08-06T08:27:00;27.10;54.90
64817;DHT22;69411;45.656;11.740;2023-08-06T08:29:28;27.20;54.90
64817;DHT22;69411;45.656;11.740;2023-08-06T08:31:54;27.30;55.00
64817;DHT22;69411;45.656;11.740;2023-08-06T08:34:25;27.50;54.60
64817;DHT22;69411;45.656;11.740;2023-08-06T08:36:51;27.40;54.80
64817;DHT22;69411;45.656;11.740;2023-08-06T08:39:19;27.30;55.00
64817;DHT22;69411;45.656;11.740;2023-08-06T08:41:45;27.40;55.30
64817;DHT22;69411;45.656;11.740;2023-08-06T08:44:13;27.40;55.30
64817;DHT22;69411;45.656;11.740;2023-08-06T08:46:42;27.50;55.20
64817;DHT22;69411;45.656;11.740;2023-08-06T08:49:11;27.60;54.40
64817;DHT22;69411;45.656;11.740;2023-08-06T08:51:38;27.50;53.50
64817;DHT22;69411;45.656;11.740;2023-08-06T08:54:07;27.10;54.10
64817;DHT22;69411;45.656;11.740;2023-08-06T08:56:35;26.90;54.50
64817;DHT22;69411;45.656;11.740;2023-08-06T08:59:01;26.90;54.90
64817;DHT22;69411;45.656;11.740;2023-08-06T09:01:29;27.10;54.80
64817;DHT22;69411;45.656;11.740;2023-08-06T09:03:57;27.30;54.90
64817;DHT22;69411;45.656;11.740;2023-08-06T09:06:25;27.50;54.70
64817;DHT22;69411;45.656;11.740;2023-08-06T09:09:04;27.70;54.60
64817;DHT22;69411;45.656;11.740;2023-08-06T09:11:39;27.90;53.80
64817;DHT22;69411;45.656;11.740;2023-08-06T09:14:07;27.80;53.40
64817;DHT22;69411;45.656;11.740;2023-08-06T09:16:37;27.50;53.70
64817;DHT22;69411;45.656;11.740;2023-08-06T09:19:10;27.40;53.60
64817;DHT22;69411;45.656;11.740;2023-08-06T09:21:41;27.30;53.60
64817;DHT22;69411;45.656;11.740;2023-08-06T09:24:11;27.20;54.00
64817;DHT22;69411;45.656;11.740;2023-08-06T09:26:41;27.20;53.90
64817;DHT22;69411;45.656;11.740;2023-08-06T09:29:08;27.20;54.00
64817;DHT22;69411;45.656;11.740;2023-08-06T09:31:44;27.20;54.30
64817;DHT22;69411;45.656;11.740;2023-08-06T09:34:17;27.40;54.40
64817;DHT22;69411;45.656;11.740;2023-08-06T09:36:46;27.50;54.00
64817;DHT22;69411;45.656;11.740;2023-08-06T09:42:07;27.80;53.90
64817;DHT22;69411;45.656;11.740;2023-08-06T09:44:36;27.90;53.70
64817;DHT22;69411;45.656;11.740;2023-08-06T09:51:58;27.80;53.30
64817;DHT22;69411;45.656;11.740;2023-08-06T09:54:27;27.70;53.70
64817;DHT22;69411;45.656;11.740;2023-08-06T09:56:56;27.80;54.00
64817;DHT22;69411;45.656;11.740;2023-08-06T09:59:24;27.90;53.70
64817;DHT22;69411;45.656;11.740;2023-08-06T10:01:54;27.90;53.50
64817;DHT22;69411;45.656;11.740;2023-08-06T10:04:23;28.00;52.50
64817;DHT22;69411;45.656;11.740;2023-08-06T10:06:50;28.00;52.40
64817;DHT22;69411;45.656;11.740;2023-08-06T10:09:16;28.00;52.30
64817;DHT22;69411;45.656;11.740;2023-08-06T10:11:51;28.10;51.70
64817;DHT22;69411;45.656;11.740;2023-08-06T10:16:56;28.40;51.30
64817;DHT22;69411;45.656;11.740;2023-08-06T10:19:25;28.50;51.10
64817;DHT22;69411;45.656;11.740;2023-08-06T10:22:13;28.50;51.50
64817;DHT22;69411;45.656;11.740;2023-08-06T10:24:57;28.70;51.40
64817;DHT22;69411;45.656;11.740;2023-08-06T10:28:10;28.80;51.20
64817;DHT22;69411;45.656;11.740;2023-08-06T10:30:44;28.90;50.60
64817;DHT22;69411;45.656;11.740;2023-08-06T10:33:11;29.00;50.60
64817;DHT22;69411;45.656;11.740;2023-08-06T10:38:14;29.10;50.70
64817;DHT22;69411;45.656;11.740;2023-08-06T10:41:00;29.10;49.90
64817;DHT22;69411;45.656;11.740;2023-08-06T10:43:33;28.80;49.40
64817;DHT22;69411;45.656;11.740;2023-08-06T10:46:02;28.70;50.50
64817;DHT22;69411;45.656;11.740;2023-08-06T10:48:41;28.80;50.40
64817;DHT22;69411;45.656;11.740;2023-08-06T10:51:09;28.80;50.70
64817;DHT22;69411;45.656;11.740;2023-08-06T10:53:44;28.90;50.70
64817;DHT22;69411;45.656;11.740;2023-08-06T10:56:26;29.10;50.50
64817;DHT22;69411;45.656;11.740;2023-08-06T10:58:57;29.10;50.00
64817;DHT22;69411;45.656;11.740;2023-08-06T11:01:24;29.20;50.00
64817;DHT22;69411;45.656;11.740;2023-08-06T11:03:50;29.00;50.00
64817;DHT22;69411;45.656;11.740;2023-08-06T11:06:21;29.00;50.20
64817;DHT22;69411;45.656;11.740;2023-08-06T11:08:52;28.80;50.10
64817;DHT22;69411;45.656;11.740;2023-08-06T11:11:19;28.50;50.60
64817;DHT22;69411;45.656;11.740;2023-08-06T11:13:50;28.60;51.00
64817;DHT22;69411;45.656;11.740;2023-08-06T11:16:32;28.70;50.90
64817;DHT22;69411;45.656;11.740;2023-08-06T11:18:58;28.80;50.50
64817;DHT22;69411;45.656;11.740;2023-08-06T11:21:25;28.70;50.60
64817;DHT22;69411;45.656;11.740;2023-08-06T11:23:56;28.70;50.30
64817;DHT22;69411;45.656;11.740;2023-08-06T11:26:24;28.70;50.50
64817;DHT22;69411;45.656;11.740;2023-08-06T11:28:50;28.70;50.60
64817;DHT22;69411;45.656;11.740;2023-08-06T11:31:22;28.70;51.00
64817;DHT22;69411;45.656;11.740;2023-08-06T11:33:53;28.80;50.90
64817;DHT22;69411;45.656;11.740;2023-08-06T11:36:41;28.90;50.70
64817;DHT22;69411;45.656;11.740;2023-08-06T11:39:07;29.00;51.10
64817;DHT22;69411;45.656;11.740;2023-08-06T11:41:38;29.20;50.90
64817;DHT22;69411;45.656;11.740;2023-08-06T11:44:05;29.40;50.30
64817;DHT22;69411;45.656;11.740;2023-08-06T11:49:50;29.60;49.30
64817;DHT22;69411;45.656;11.740;2023-08-06T11:52:21;29.70;48.70
64817;DHT22;69411;45.656;11.740;2023-08-06T11:55:05;29.70;48.40
64817;DHT22;69411;45.656;11.740;2023-08-06T11:57:36;29.80;48.80
64817;DHT22;69411;45.656;11.740;2023-08-06T12:00:12;29.90;48.60
64817;DHT22;69411;45.656;11.740;2023-08-06T12:02:42;29.90;48.20
64817;DHT22;69411;45.656;11.740;2023-08-06T12:05:19;29.80;48.20
64817;DHT22;69411;45.656;11.740;2023-08-06T12:07:55;29.80;48.30
64817;DHT22;69411;45.656;11.740;2023-08-06T12:10:23;29.70;48.10
64817;DHT22;69411;45.656;11.740;2023-08-06T12:12:50;29.50;48.30
64817;DHT22;69411;45.656;11.740;2023-08-06T12:15:16;29.40;48.80
64817;DHT22;69411;45.656;11.740;2023-08-06T12:17:44;29.30;48.90
64817;DHT22;69411;45.656;11.740;2023-08-06T12:20:11;29.30;49.10
64817;DHT22;69411;45.656;11.740;2023-08-06T12:22:39;29.40;48.80
64817;DHT22;69411;45.656;11.740;2023-08-06T12:25:13;29.40;48.90
64817;DHT22;69411;45.656;11.740;2023-08-06T12:27:41;29.40;48.90
64817;DHT22;69411;45.656;11.740;2023-08-06T12:30:08;29.50;48.90
64817;DHT22;69411;45.656;11.740;2023-08-06T12:32:38;29.50;48.30
64817;DHT22;69411;45.656;11.740;2023-08-06T12:35:07;29.50;48.40
64817;DHT22;69411;45.656;11.740;2023-08-06T12:37:36;29.50;48.60
64817;DHT22;69411;45.656;11.740;2023-08-06T12:40:04;29.40;48.70
64817;DHT22;69411;45.656;11.740;2023-08-06T12:42:33;29.40;49.10
64817;DHT22;69411;45.656;11.740;2023-08-06T12:44:59;29.40;49.30
64817;DHT22;69411;45.656;11.740;2023-08-06T12:47:30;29.40;49.60
64817;DHT22;69411;45.656;11.740;2023-08-06T12:49:58;29.40;49.60
64817;DHT22;69411;45.656;11.740;2023-08-06T12:52:26;29.40;49.50
64817;DHT22;69411;45.656;11.740;2023-08-06T12:54:54;29.40;49.80
64817;DHT22;69411;45.656;11.740;2023-08-06T12:57:22;29.60;50.00
64817;DHT22;69411;45.656;11.740;2023-08-06T12:59:50;29.70;49.80
64817;DHT22;69411;45.656;11.740;2023-08-06T13:02:16;29.80;49.20
64817;DHT22;69411;45.656;11.740;2023-08-06T13:04:42;29.90;49.30
64817;DHT22;69411;45.656;11.740;2023-08-06T13:07:09;29.90;49.40
64817;DHT22;69411;45.656;11.740;2023-08-06T13:09:36;29.90;49.30
64817;DHT22;69411;45.656;11.740;2023-08-06T13:14:30;30.00;49.40
64817;DHT22;69411;45.656;11.740;2023-08-06T13:16:56;30.10;49.10
64817;DHT22;69411;45.656;11.740;2023-08-06T13:19:23;30.20;48.60
64817;DHT22;69411;45.656;11.740;2023-08-06T13:21:57;30.20;48.10
64817;DHT22;69411;45.656;11.740;2023-08-06T13:24:26;30.20;48.10
64817;DHT22;69411;45.656;11.740;2023-08-06T13:26:56;30.10;48.60
64817;DHT22;69411;45.656;11.740;2023-08-06T13:29:25;29.90;48.70
64817;DHT22;69411;45.656;11.740;2023-08-06T13:31:53;29.80;49.10
64817;DHT22;69411;45.656;11.740;2023-08-06T13:34:19;29.60;49.60
64817;DHT22;69411;45.656;11.740;2023-08-06T13:36:47;29.50;50.00
64817;DHT22;69411;45.656;11.740;2023-08-06T13:39:16;29.40;50.40
64817;DHT22;69411;45.656;11.740;2023-08-06T13:41:48;29.30;50.80
64817;DHT22;69411;45.656;11.740;2023-08-06T13:44:16;29.20;51.20
64817;DHT22;69411;45.656;11.740;2023-08-06T13:46:44;29.00;51.50
64817;DHT22;69411;45.656;11.740;2023-08-06T13:49:11;28.90;51.70
64817;DHT22;69411;45.656;11.740;2023-08-06T13:51:39;28.80;51.60
64817;DHT22;69411;45.656;11.740;2023-08-06T13:54:06;28.60;51.80
64817;DHT22;69411;45.656;11.740;2023-08-06T13:56:34;28.50;51.80
64817;DHT22;69411;45.656;11.740;2023-08-06T13:59:05;28.20;52.80
64817;DHT22;69411;45.656;11.740;2023-08-06T14:01:31;28.10;53.50
64817;DHT22;69411;45.656;11.740;2023-08-06T14:03:59;28.00;53.80
64817;DHT22;69411;45.656;11.740;2023-08-06T14:06:26;27.90;54.20
64817;DHT22;69411;45.656;11.740;2023-08-06T14:08:53;27.90;54.40
64817;DHT22;69411;45.656;11.740;2023-08-06T14:11:24;28.00;54.50
64817;DHT22;69411;45.656;11.740;2023-08-06T14:13:57;28.20;54.20
64817;DHT22;69411;45.656;11.740;2023-08-06T14:16:23;28.40;54.00
64817;DHT22;69411;45.656;11.740;2023-08-06T14:18:49;28.60;53.80
64817;DHT22;69411;45.656;11.740;2023-08-06T14:21:15;28.50;55.60
64817;DHT22;69411;45.656;11.740;2023-08-06T14:23:41;28.10;56.90
64817;DHT22;69411;45.656;11.740;2023-08-06T14:26:08;27.60;57.60
64817;DHT22;69411;45.656;11.740;2023-08-06T14:28:36;27.40;57.50
64817;DHT22;69411;45.656;11.740;2023-08-06T14:31:02;27.10;58.20
64817;DHT22;69411;45.656;11.740;2023-08-06T14:33:32;26.90;58.00
64817;DHT22;69411;45.656;11.740;2023-08-06T14:36:00;26.90;58.00
64817;DHT22;69411;45.656;11.740;2023-08-06T14:38:27;26.90;58.10
64817;DHT22;69411;45.656;11.740;2023-08-06T14:40:53;26.90;58.40
64817;DHT22;69411;45.656;11.740;2023-08-06T14:43:19;26.90;58.00
64817;DHT22;69411;45.656;11.740;2023-08-06T14:45:47;27.00;57.70
64817;DHT22;69411;45.656;11.740;2023-08-06T14:48:15;27.10;57.10
64817;DHT22;69411;45.656;11.740;2023-08-06T14:50:41;27.30;56.50
64817;DHT22;69411;45.656;11.740;2023-08-06T14:53:07;27.30;56.40
64817;DHT22;69411;45.656;11.740;2023-08-06T14:55:36;27.40;55.50
64817;DHT22;69411;45.656;11.740;2023-08-06T14:58:02;27.30;55.40
64817;DHT22;69411;45.656;11.740;2023-08-06T15:00:28;27.30;55.70
64817;DHT22;69411;45.656;11.740;2023-08-06T15:02:54;27.30;55.70
64817;DHT22;69411;45.656;11.740;2023-08-06T15:05:20;27.30;55.80
64817;DHT22;69411;45.656;11.740;2023-08-06T15:07:48;27.40;55.80
64817;DHT22;69411;45.656;11.740;2023-08-06T15:10:15;27.50;55.50
64817;DHT22;69411;45.656;11.740;2023-08-06T15:12:42;27.60;55.00
64817;DHT22;69411;45.656;11.740;2023-08-06T15:15:08;27.80;54.80
64817;DHT22;69411;45.656;11.740;2023-08-06T15:17:34;27.90;54.50
64817;DHT22;69411;45.656;11.740;2023-08-06T15:20:01;27.90;54.20
64817;DHT22;69411;45.656;11.740;2023-08-06T15:22:27;28.10;54.00
64817;DHT22;69411;45.656;11.740;2023-08-06T15:24:54;28.20;53.70
64817;DHT22;69411;45.656;11.740;2023-08-06T15:27:25;28.20;53.50
64817;DHT22;69411;45.656;11.740;2023-08-06T15:29:52;28.40;53.40
64817;DHT22;69411;45.656;11.740;2023-08-06T15:32:19;28.40;53.30
64817;DHT22;69411;45.656;11.740;2023-08-06T15:34:50;28.40;53.00
64817;DHT22;69411;45.656;11.740;2023-08-06T15:37:18;28.30;52.30
64817;DHT22;69411;45.656;11.740;2023-08-06T15:39:46;28.10;52.20
64817;DHT22;69411;45.656;11.740;2023-08-06T15:42:14;27.90;52.20
64817;DHT22;69411;45.656;11.740;2023-08-06T15:44:41;27.80;52.50
64817;DHT22;69411;45.656;11.740;2023-08-06T15:47:10;27.50;52.80
64817;DHT22;69411;45.656;11.740;2023-08-06T15:49:40;27.40;52.50
64817;DHT22;69411;45.656;11.740;2023-08-06T15:52:08;27.20;52.40